Time;durP1;ratioP1;P1;durP2;ratioP2;P2;SDS_P1;SDS_P2;PMS_P1;PMS_P2;Temp;Humidity;BMP_temperature;BMP_pressure;BME280_temperature;BME280_humidity;BME280_pressure;Samples;Min_cycle;Max_cycle;Signal;HPM_P1;HPM_P2
2022/03/28 00:00:07;;;;;;;376.83;158.97;;;;;;;12.33;45.55;100674.31;343949;28;1189;-70
2022/03/28 00:00:18;;;;;;;372.92;154.77;;;;;;;12.30;45.55;100672.63;344806;28;1605;-70
2022/03/28 00:00:29;;;;;;;370.27;153.30;;;;;;;12.25;45.63;100676.31;340819;28;2077;-70
2022/03/28 00:00:39;;;;;;;372.02;154.15;;;;;;;12.16;45.74;100674.81;342665;28;1951;-70
2022/03/28 00:00:50;;;;;;;373.48;155.63;;;;;;;12.15;46.01;100675.72;342664;28;820;-71
2022/03/28 00:01:00;;;;;;;375.30;157.33;;;;;;;12.15;46.02;100672.22;344144;28;1473;-70
2022/03/28 00:01:11;;;;;;;375.30;155.77;;;;;;;12.08;46.32;100673.34;342637;28;981;-70
2022/03/28 00:01:21;;;;;;;377.17;156.52;;;;;;;12.04;46.30;100680.44;345379;28;816;-70
2022/03/28 00:01:32;;;;;;;375.13;154.67;;;;;;;12.03;46.24;100681.34;346674;28;903;-70
2022/03/28 00:01:42;;;;;;;375.05;153.88;;;;;;;12.04;46.07;100674.34;345318;28;2067;-70
2022/03/28 00:01:53;;;;;;;372.63;150.32;;;;;;;12.07;46.38;100669.88;345303;28;1452;-70
2022/03/28 00:02:03;;;;;;;371.03;144.73;;;;;;;12.12;46.28;100674.97;345273;28;1319;-70
2022/03/28 00:02:14;;;;;;;367.40;143.73;;;;;;;12.20;46.25;100676.44;341273;28;1353;-70
2022/03/28 00:02:24;;;;;;;366.93;144.77;;;;;;;12.25;46.02;100679.78;343979;28;1472;-71
2022/03/28 00:02:36;;;;;;;368.77;147.68;;;;;;;12.27;46.04;100677.13;342327;28;2043;-70
2022/03/28 00:02:46;;;;;;;370.10;147.88;;;;;;;12.26;46.04;100676.25;340950;28;1509;-70
2022/03/28 00:02:58;;;;;;;374.17;155.27;;;;;;;12.24;45.76;100677.22;343751;28;1227;-70
2022/03/28 00:03:10;;;;;;;376.26;154.64;;;;;;;12.24;46.05;100680.69;342646;28;2370;-70
2022/03/28 00:03:21;;;;;;;377.17;156.93;;;;;;;12.29;45.84;100676.16;341740;28;1798;-71
2022/03/28 00:03:31;;;;;;;370.50;152.32;;;;;;;12.33;45.70;100677.78;339949;29;1295;-71
2022/03/28 00:03:42;;;;;;;369.83;153.37;;;;;;;12.38;45.48;100679.41;341977;28;1437;-71
2022/03/28 00:03:52;;;;;;;369.92;153.25;;;;;;;12.43;45.41;100678.38;341278;29;1669;-70
2022/03/28 00:04:03;;;;;;;375.25;158.18;;;;;;;12.46;45.28;100683.53;341300;29;1542;-71
2022/03/28 00:04:13;;;;;;;374.37;161.47;;;;;;;12.46;45.50;100677.41;340779;29;1065;-71
2022/03/28 00:04:24;;;;;;;374.95;159.95;;;;;;;12.48;45.68;100686.97;342508;28;1391;-71
2022/03/28 00:04:34;;;;;;;372.97;157.93;;;;;;;12.49;45.30;100682.56;341305;29;1434;-71
2022/03/28 00:04:45;;;;;;;373.58;154.68;;;;;;;12.51;45.58;100681.63;343878;28;1364;-71
2022/03/28 00:04:55;;;;;;;373.27;154.47;;;;;;;12.50;45.43;100689.53;342516;28;873;-70
2022/03/28 00:05:10;;;;;;;374.42;150.45;;;;;;;12.45;45.41;100678.31;342601;28;1590;-70
2022/03/28 00:05:20;;;;;;;372.23;148.38;;;;;;;12.34;45.83;100681.28;343986;28;1407;-71
2022/03/28 00:05:31;;;;;;;372.38;149.85;;;;;;;12.29;45.66;100678.78;343810;28;1292;-71
2022/03/28 00:05:42;;;;;;;373.05;151.73;;;;;;;12.27;45.67;100677.13;341269;29;1090;-71
2022/03/28 00:05:52;;;;;;;371.77;151.15;;;;;;;12.27;46.34;100677.13;341314;29;851;-72
2022/03/28 00:06:03;;;;;;;368.80;150.63;;;;;;;12.23;45.91;100686.84;342469;28;2104;-70
2022/03/28 00:06:14;;;;;;;370.92;151.98;;;;;;;12.18;45.98;100678.25;344029;28;967;-71
2022/03/28 00:06:24;;;;;;;371.48;152.40;;;;;;;12.14;46.13;100676.63;343883;28;1465;-71
2022/03/28 00:06:35;;;;;;;373.70;150.90;;;;;;;12.17;46.24;100676.53;345370;28;999;-70
2022/03/28 00:06:45;;;;;;;372.67;150.43;;;;;;;12.21;46.08;100677.28;342620;28;857;-70
2022/03/28 00:06:55;;;;;;;373.27;153.60;;;;;;;12.26;46.06;100686.75;345331;28;936;-70
2022/03/28 00:07:06;;;;;;;371.23;153.77;;;;;;;12.29;45.61;100681.41;344092;28;869;-70
2022/03/28 00:07:16;;;;;;;372.20;153.20;;;;;;;12.26;45.80;100680.66;343894;28;1333;-70
2022/03/28 00:07:27;;;;;;;371.33;151.32;;;;;;;12.22;45.80;100679.88;343950;28;1450;-70
2022/03/28 00:07:37;;;;;;;371.80;152.83;;;;;;;12.24;45.86;100682.44;345118;28;1887;-70
2022/03/28 00:07:48;;;;;;;369.02;150.68;;;;;;;12.24;46.00;100680.69;345111;28;1439;-70
2022/03/28 00:07:58;;;;;;;369.20;150.63;;;;;;;12.22;45.91;100679.88;342515;28;2593;-70
2022/03/28 00:08:09;;;;;;;370.25;151.13;;;;;;;12.21;45.86;100677.28;342564;28;1553;-70
2022/03/28 00:08:19;;;;;;;374.20;155.00;;;;;;;12.21;45.99;100678.16;342614;28;1268;-70
2022/03/28 00:08:30;;;;;;;375.45;155.98;;;;;;;12.23;46.11;100673.72;341249;29;1069;-70
2022/03/28 00:08:40;;;;;;;371.90;153.90;;;;;;;12.25;45.85;100671.91;342521;28;1823;-70
2022/03/28 00:08:51;;;;;;;372.43;155.47;;;;;;;12.26;46.08;100675.41;342455;28;1910;-70
2022/03/28 00:09:02;;;;;;;372.10;156.30;;;;;;;12.22;45.98;100674.63;339855;29;1413;-70
2022/03/28 00:09:12;;;;;;;373.88;156.73;;;;;;;12.22;46.17;100679.00;342197;28;1992;-70
2022/03/28 00:09:22;;;;;;;372.10;157.63;;;;;;;12.20;46.27;100675.56;343488;28;1577;-71
2022/03/28 00:09:33;;;;;;;372.57;156.47;;;;;;;12.19;46.53;100674.72;343816;28;1185;-70
2022/03/28 00:09:43;;;;;;;372.67;155.25;;;;;;;12.20;46.15;100673.81;344052;28;956;-71
2022/03/28 00:09:53;;;;;;;372.27;154.17;;;;;;;12.20;46.08;100676.44;343915;28;1888;-70
2022/03/28 00:10:04;;;;;;;370.48;154.48;;;;;;;12.19;46.11;100677.34;342634;28;1178;-70
2022/03/28 00:10:15;;;;;;;370.37;157.93;;;;;;;12.16;46.28;100669.56;339985;29;965;-70
2022/03/28 00:10:25;;;;;;;371.67;157.02;;;;;;;12.14;46.21;100670.50;341218;29;1054;-70
2022/03/28 00:10:36;;;;;;;372.00;157.60;;;;;;;12.13;46.38;100676.69;343877;28;1461;-70
2022/03/28 00:10:46;;;;;;;371.87;154.43;;;;;;;12.14;46.42;100676.63;341329;29;845;-70
2022/03/28 00:10:57;;;;;;;373.60;156.30;;;;;;;12.17;46.31;100671.28;341967;28;1983;-70
2022/03/28 00:11:07;;;;;;;371.80;153.97;;;;;;;12.20;46.20;100676.44;342562;28;956;-70
2022/03/28 00:11:18;;;;;;;370.88;151.27;;;;;;;12.23;46.05;100670.25;345366;28;857;-70
2022/03/28 00:11:28;;;;;;;368.33;149.13;;;;;;;12.25;46.17;100674.53;343991;28;1110;-70
2022/03/28 00:11:39;;;;;;;368.92;150.85;;;;;;;12.28;45.91;100681.47;345089;28;1339;-70
2022/03/28 00:11:49;;;;;;;368.60;152.65;;;;;;;12.24;46.10;100675.44;343992;28;825;-70
2022/03/28 00:12:00;;;;;;;368.93;155.70;;;;;;;12.21;46.05;100675.53;342613;28;1350;-70
2022/03/28 00:12:10;;;;;;;369.85;154.43;;;;;;;12.15;46.27;100673.09;341262;29;873;-70
2022/03/28 00:12:21;;;;;;;370.50;154.63;;;;;;;12.13;46.40;100672.28;342640;28;1055;-71
2022/03/28 00:12:32;;;;;;;371.27;153.55;;;;;;;12.13;46.33;100669.66;346651;28;1219;-71
2022/03/28 00:12:42;;;;;;;372.38;152.55;;;;;;;12.15;46.34;100667.84;343792;28;2003;-71
2022/03/28 00:12:53;;;;;;;373.88;152.52;;;;;;;12.13;46.49;100669.66;345095;28;1666;-71
2022/03/28 00:13:03;;;;;;;372.90;151.17;;;;;;;12.17;46.28;100671.28;342528;28;812;-71
2022/03/28 00:13:14;;;;;;;374.60;155.20;;;;;;;12.20;46.31;100676.44;339831;29;1432;-71
2022/03/28 00:13:24;;;;;;;375.63;154.53;;;;;;;12.23;45.94;100675.50;339906;29;1884;-71
2022/03/28 00:13:35;;;;;;;374.42;155.77;;;;;;;12.25;45.98;100674.53;342506;28;1314;-71
2022/03/28 00:13:45;;;;;;;373.07;153.20;;;;;;;12.29;46.10;100670.06;341261;28;1414;-71
2022/03/28 00:13:56;;;;;;;372.02;152.35;;;;;;;12.34;45.98;100673.41;339970;29;953;-70
2022/03/28 00:14:06;;;;;;;372.83;156.03;;;;;;;12.33;45.64;100677.78;340019;29;847;-70
2022/03/28 00:14:17;;;;;;;371.13;156.43;;;;;;;12.36;45.90;100671.59;341191;29;1931;-70
2022/03/28 00:14:27;;;;;;;370.13;155.03;;;;;;;12.39;45.92;100668.00;341247;28;1477;-70
2022/03/28 00:14:37;;;;;;;372.50;154.57;;;;;;;12.42;45.95;100675.78;342510;28;1229;-70
2022/03/28 00:14:48;;;;;;;376.40;158.43;;;;;;;12.43;45.84;100672.25;343745;28;1562;-70
2022/03/28 00:14:58;;;;;;;376.95;157.68;;;;;;;12.42;45.92;100671.41;342565;28;1010;-70
2022/03/28 00:15:09;;;;;;;374.07;153.43;;;;;;;12.43;46.05;100672.25;341313;29;953;-71
2022/03/28 00:15:20;;;;;;;371.98;148.63;;;;;;;12.43;45.85;100672.25;342529;28;897;-71
2022/03/28 00:15:31;;;;;;;373.27;150.00;;;;;;;12.41;45.75;100671.44;343912;28;1004;-71
2022/03/28 00:15:41;;;;;;;374.15;152.20;;;;;;;12.33;45.97;100667.28;342625;28;886;-71
2022/03/28 00:15:51;;;;;;;375.07;150.87;;;;;;;12.33;45.68;100672.53;342629;28;831;-71
2022/03/28 00:16:03;;;;;;;376.92;153.63;;;;;;;12.32;46.05;100665.56;342436;28;1908;-71
2022/03/28 00:16:14;;;;;;;374.38;152.65;;;;;;;12.38;45.97;100668.91;342549;28;1173;-71
2022/03/28 00:16:24;;;;;;;371.73;155.63;;;;;;;12.39;45.98;100668.88;342626;28;1019;-71
2022/03/28 00:16:34;;;;;;;370.85;158.48;;;;;;;12.42;45.76;100675.78;343879;28;1172;-71
2022/03/28 00:16:45;;;;;;;373.50;159.90;;;;;;;12.33;45.95;100675.16;341234;29;872;-71
2022/03/28 00:16:56;;;;;;;375.13;159.33;;;;;;;12.22;46.12;100669.38;339863;29;974;-71
2022/03/28 00:17:06;;;;;;;375.17;158.57;;;;;;;12.16;46.46;100668.69;339954;29;1227;-71
2022/03/28 00:17:17;;;;;;;371.33;152.97;;;;;;;12.13;46.28;100669.66;342595;28;2024;-71
2022/03/28 00:17:27;;;;;;;371.50;151.50;;;;;;;12.12;46.06;100664.47;343593;28;2364;-71
2022/03/28 00:17:38;;;;;;;372.57;152.03;;;;;;;12.14;46.51;100666.13;341685;28;2371;-71
2022/03/28 00:17:49;;;;;;;374.83;155.38;;;;;;;12.19;46.25;100665.97;341494;28;1907;-71
2022/03/28 00:17:59;;;;;;;372.45;157.55;;;;;;;12.19;46.17;100669.47;341325;29;836;-71
2022/03/28 00:18:10;;;;;;;374.47;158.00;;;;;;;12.22;46.12;100671.13;341624;28;3409;-71
2022/03/28 00:18:21;;;;;;;372.88;156.57;;;;;;;12.23;46.39;100671.09;344080;28;1064;-71
2022/03/28 00:18:31;;;;;;;376.52;157.48;;;;;;;12.20;46.34;100668.56;342519;28;1565;-71
2022/03/28 00:18:42;;;;;;;377.00;159.77;;;;;;;12.19;46.27;100669.47;343885;28;1394;-71
2022/03/28 00:18:52;;;;;;;375.80;156.73;;;;;;;12.17;46.31;100666.03;343993;28;1093;-71
2022/03/28 00:19:03;;;;;;;373.47;153.70;;;;;;;12.14;46.29;100662.63;343783;28;1216;-71
2022/03/28 00:19:13;;;;;;;372.17;155.38;;;;;;;12.12;46.53;100661.84;342409;28;1882;-71
2022/03/28 00:19:23;;;;;;;374.77;159.30;;;;;;;12.12;46.48;100662.72;342645;28;979;-71
2022/03/28 00:19:34;;;;;;;375.90;158.13;;;;;;;12.10;46.64;100667.16;342457;28;1343;-71
2022/03/28 00:19:44;;;;;;;375.30;155.37;;;;;;;12.10;46.58;100664.53;346277;28;1409;-71
2022/03/28 00:19:54;;;;;;;374.05;153.80;;;;;;;12.11;46.45;100661.00;343833;28;1335;-71
2022/03/28 00:20:06;;;;;;;372.87;156.10;;;;;;;12.13;46.65;100663.56;343995;28;866;-71
2022/03/28 00:20:17;;;;;;;372.05;156.93;;;;;;;12.17;46.55;100660.78;341571;28;2142;-71
2022/03/28 00:20:27;;;;;;;370.80;155.33;;;;;;;12.22;46.41;100669.38;341146;28;1911;-70
2022/03/28 00:20:38;;;;;;;372.40;156.07;;;;;;;12.25;46.44;100666.66;342536;28;2376;-70
2022/03/28 00:20:50;;;;;;;373.23;153.55;;;;;;;12.28;46.27;100669.19;342625;28;1295;-70
2022/03/28 00:21:01;;;;;;;373.77;154.65;;;;;;;12.30;46.11;100664.75;342333;28;2012;-70
2022/03/28 00:21:11;;;;;;;374.03;153.60;;;;;;;12.30;46.44;100667.38;342639;28;972;-70
2022/03/28 00:21:22;;;;;;;372.53;155.40;;;;;;;12.32;46.42;100662.94;342704;28;1031;-70
2022/03/28 00:21:32;;;;;;;373.77;157.05;;;;;;;12.33;46.25;100661.19;343841;28;952;-70
2022/03/28 00:21:42;;;;;;;373.67;159.53;;;;;;;12.33;46.25;100664.66;343854;28;1403;-70
2022/03/28 00:21:53;;;;;;;374.65;160.30;;;;;;;12.36;46.34;100670.72;339959;28;1496;-70
2022/03/28 00:22:03;;;;;;;371.43;158.10;;;;;;;12.36;46.45;100666.34;341204;29;952;-70
2022/03/28 00:22:14;;;;;;;371.73;159.48;;;;;;;12.37;46.21;100665.44;341282;29;894;-70
2022/03/28 00:22:24;;;;;;;370.67;156.70;;;;;;;12.38;46.22;100658.41;341434;28;2123;-71
2022/03/28 00:22:35;;;;;;;370.73;153.75;;;;;;;12.34;46.18;100670.78;342363;28;1911;-71
2022/03/28 00:22:45;;;;;;;371.43;152.67;;;;;;;12.34;46.30;100665.53;343727;28;1035;-71
2022/03/28 00:22:55;;;;;;;374.83;156.50;;;;;;;12.27;46.27;100664.84;343867;28;1167;-71
2022/03/28 00:23:06;;;;;;;378.97;162.83;;;;;;;12.16;46.25;100656.44;342437;28;1818;-71
2022/03/28 00:23:16;;;;;;;377.42;161.70;;;;;;;12.03;46.71;100657.75;341200;28;1323;-71
2022/03/28 00:23:27;;;;;;;374.07;157.33;;;;;;;11.92;47.08;100662.44;343334;28;1050;-71
2022/03/28 00:23:37;;;;;;;369.55;150.88;;;;;;;11.82;47.21;100664.47;345246;28;967;-71
2022/03/28 00:23:48;;;;;;;368.17;147.53;;;;;;;11.76;47.29;100664.63;343866;28;1193;-71
2022/03/28 00:23:58;;;;;;;371.25;149.65;;;;;;;11.70;47.44;100658.72;342198;28;2129;-71
2022/03/28 00:24:09;;;;;;;370.20;147.93;;;;;;;11.65;47.81;100659.69;342513;28;1380;-71
2022/03/28 00:24:19;;;;;;;372.75;153.13;;;;;;;11.65;47.92;100664.09;343448;28;2035;-71
2022/03/28 00:24:30;;;;;;;370.90;153.47;;;;;;;11.63;47.89;100658.88;343342;28;958;-71
2022/03/28 00:24:40;;;;;;;373.10;154.30;;;;;;;11.68;47.65;100660.53;342495;28;1204;-71
2022/03/28 00:24:51;;;;;;;370.75;150.35;;;;;;;11.71;47.50;100661.25;341266;28;1251;-71
2022/03/28 00:25:01;;;;;;;369.77;148.87;;;;;;;11.72;47.62;100662.13;343790;28;1417;-71
2022/03/28 00:25:11;;;;;;;370.97;148.77;;;;;;;11.74;47.69;100665.56;342440;28;1452;-71
2022/03/28 00:25:22;;;;;;;372.27;146.73;;;;;;;11.79;47.51;100663.69;341231;28;860;-71
2022/03/28 00:25:32;;;;;;;371.60;144.53;;;;;;;11.84;47.59;100672.31;343878;28;977;-71
2022/03/28 00:25:45;;;;;;;370.42;143.57;;;;;;;11.90;47.25;100666.88;342594;28;907;-71
2022/03/28 00:25:55;;;;;;;368.80;145.73;;;;;;;11.91;47.35;100668.59;342848;28;1779;-71
2022/03/28 00:26:05;;;;;;;368.95;146.75;;;;;;;11.89;47.22;100660.78;342551;28;1208;-69
2022/03/28 00:26:16;;;;;;;369.80;149.30;;;;;;;11.94;47.45;100665.88;338636;29;870;-70
2022/03/28 00:26:26;;;;;;;369.25;146.95;;;;;;;11.98;47.63;100664.88;341333;29;976;-70
2022/03/28 00:26:37;;;;;;;368.53;147.20;;;;;;;12.00;47.44;100665.69;341280;29;937;-70
2022/03/28 00:26:47;;;;;;;367.90;147.80;;;;;;;12.05;47.15;100665.56;342603;28;1175;-71
2022/03/28 00:26:57;;;;;;;368.97;147.80;;;;;;;12.07;47.31;100671.63;342521;28;915;-71
2022/03/28 00:27:08;;;;;;;369.75;148.88;;;;;;;12.09;46.95;100668.06;343422;28;2702;-71
2022/03/28 00:27:19;;;;;;;367.90;146.43;;;;;;;12.10;46.98;100669.78;340655;29;1778;-71
2022/03/28 00:27:29;;;;;;;368.20;150.38;;;;;;;12.11;46.89;100666.25;342523;28;1209;-71
2022/03/28 00:27:39;;;;;;;366.77;147.57;;;;;;;12.13;47.08;100669.66;343774;28;1690;-71
2022/03/28 00:27:50;;;;;;;366.15;145.32;;;;;;;12.14;46.95;100665.25;341209;29;1758;-71
2022/03/28 00:28:00;;;;;;;365.97;145.10;;;;;;;12.16;46.88;100674.81;341205;28;1359;-70
2022/03/28 00:28:11;;;;;;;369.17;151.50;;;;;;;12.18;46.90;100673.00;341157;29;1204;-70
2022/03/28 00:28:23;;;;;;;370.80;155.50;;;;;;;12.19;46.74;100665.97;342473;28;1482;-70
2022/03/28 00:28:34;;;;;;;371.65;156.00;;;;;;;12.22;47.00;100669.38;345191;28;1414;-70
2022/03/28 00:28:44;;;;;;;371.43;155.93;;;;;;;12.26;46.90;100675.41;343807;28;1305;-71
2022/03/28 00:28:54;;;;;;;373.83;158.07;;;;;;;12.26;46.75;100670.16;343712;28;2467;-71
2022/03/28 00:29:05;;;;;;;372.73;156.30;;;;;;;12.22;46.87;100673.75;343451;28;2027;-71
2022/03/28 00:29:15;;;;;;;370.88;152.75;;;;;;;12.23;47.08;100676.34;342932;28;1463;-71
2022/03/28 00:29:26;;;;;;;370.00;152.53;;;;;;;12.24;46.79;100677.22;343785;28;1341;-71
2022/03/28 00:29:36;;;;;;;371.65;155.90;;;;;;;12.26;46.83;100667.53;343965;28;1052;-71
2022/03/28 00:29:47;;;;;;;374.70;157.80;;;;;;;12.26;46.86;100676.25;343878;28;1231;-71
2022/03/28 00:29:57;;;;;;;373.85;157.32;;;;;;;12.27;46.86;100677.97;341179;29;939;-71
2022/03/28 00:30:08;;;;;;;372.03;153.87;;;;;;;12.28;46.97;100674.44;341220;29;1193;-71
2022/03/28 00:30:19;;;;;;;370.30;153.68;;;;;;;12.29;46.68;100676.16;342485;28;1279;-71
2022/03/28 00:30:29;;;;;;;371.07;157.70;;;;;;;12.32;46.81;100676.06;341047;28;1170;-71
2022/03/28 00:30:39;;;;;;;370.42;159.43;;;;;;;12.34;46.75;100673.41;342535;28;968;-71
2022/03/28 00:30:50;;;;;;;370.37;159.37;;;;;;;12.35;46.75;100675.13;343120;28;1649;-71
2022/03/28 00:31:00;;;;;;;372.27;157.90;;;;;;;12.33;46.51;100672.53;343429;28;1667;-71
2022/03/28 00:31:11;;;;;;;371.77;155.27;;;;;;;12.32;46.65;100673.44;341288;29;845;-71
2022/03/28 00:31:21;;;;;;;374.03;157.43;;;;;;;12.32;46.65;100680.47;342578;28;904;-71
2022/03/28 00:31:31;;;;;;;373.20;158.88;;;;;;;12.33;46.63;100675.16;342531;28;948;-71
2022/03/28 00:31:42;;;;;;;376.60;162.13;;;;;;;12.31;46.63;100682.22;343815;28;1217;-71
2022/03/28 00:31:52;;;;;;;376.20;165.32;;;;;;;12.30;46.48;100672.63;345496;28;1400;-71
2022/03/28 00:32:03;;;;;;;377.73;165.47;;;;;;;12.30;46.47;100674.41;341947;28;1659;-71
2022/03/28 00:32:13;;;;;;;375.70;165.52;;;;;;;12.29;46.64;100681.41;342434;28;1301;-71
2022/03/28 00:32:24;;;;;;;376.00;163.57;;;;;;;12.25;46.75;100674.53;342534;28;832;-71
2022/03/28 00:32:34;;;;;;;376.67;165.48;;;;;;;12.26;46.63;100684.13;342344;28;1862;-71
2022/03/28 00:32:45;;;;;;;379.60;168.97;;;;;;;12.26;46.72;100676.25;342690;28;1764;-71
2022/03/28 00:32:55;;;;;;;377.58;169.20;;;;;;;12.27;46.78;100675.34;341982;28;1998;-71
2022/03/28 00:33:06;;;;;;;377.17;169.43;;;;;;;12.26;46.29;100675.41;342550;28;2310;-71
2022/03/28 00:33:16;;;;;;;374.92;167.00;;;;;;;12.23;46.75;100675.50;343871;28;2023;-71
2022/03/28 00:33:26;;;;;;;372.97;162.97;;;;;;;12.16;46.68;100672.19;343928;28;1010;-71
2022/03/28 00:33:37;;;;;;;369.73;155.30;;;;;;;12.15;47.03;100678.34;343880;28;904;-72
2022/03/28 00:33:47;;;;;;;368.93;157.30;;;;;;;12.14;47.11;100673.13;341263;29;881;-72
2022/03/28 00:33:58;;;;;;;369.60;156.65;;;;;;;12.13;46.99;100679.31;342903;28;1712;-72
2022/03/28 00:34:08;;;;;;;373.33;160.00;;;;;;;12.03;47.29;100668.25;343967;28;1129;-72
2022/03/28 00:34:23;;;;;;;375.10;157.85;;;;;;;11.96;47.38;100671.94;343848;28;1550;-72
2022/03/28 00:34:33;;;;;;;377.30;158.00;;;;;;;11.89;47.49;100678.28;342617;28;957;-72
2022/03/28 00:34:43;;;;;;;376.27;152.50;;;;;;;11.90;47.49;100669.50;342473;28;1675;-72
2022/03/28 00:34:55;;;;;;;375.53;153.73;;;;;;;11.94;47.09;100684.25;342634;28;847;-72
2022/03/28 00:35:06;;;;;;;374.42;153.18;;;;;;;11.93;47.66;100685.16;341198;29;964;-72
2022/03/28 00:35:17;;;;;;;370.13;150.00;;;;;;;11.92;47.47;100680.81;345161;28;1350;-72
2022/03/28 00:35:27;;;;;;;369.27;150.50;;;;;;;11.94;47.66;100673.75;342627;28;1085;-72
2022/03/28 00:35:38;;;;;;;371.17;151.57;;;;;;;11.91;47.75;100674.69;343891;28;877;-72
2022/03/28 00:35:48;;;;;;;375.93;151.93;;;;;;;11.94;47.46;100684.25;343961;28;1117;-72
2022/03/28 00:35:59;;;;;;;376.00;150.77;;;;;;;11.96;47.47;100671.94;342509;28;1326;-72
2022/03/28 00:36:09;;;;;;;374.93;150.47;;;;;;;11.99;47.51;100671.84;341221;29;945;-72
2022/03/28 00:36:20;;;;;;;369.67;146.40;;;;;;;12.00;47.25;100678.81;343970;28;904;-72
2022/03/28 00:36:30;;;;;;;364.92;143.32;;;;;;;11.97;47.46;100669.28;342506;28;1267;-72
2022/03/28 00:36:41;;;;;;;363.92;144.00;;;;;;;11.88;47.67;100673.94;343871;28;807;-72
2022/03/28 00:36:52;;;;;;;368.38;149.07;;;;;;;11.79;47.45;100682.06;344201;28;2142;-72
2022/03/28 00:37:03;;;;;;;370.20;147.43;;;;;;;11.77;47.81;100681.25;339765;29;1889;-72
2022/03/28 00:37:13;;;;;;;371.15;145.52;;;;;;;11.76;47.90;100682.13;342577;28;2415;-71
2022/03/28 00:37:24;;;;;;;367.50;142.65;;;;;;;11.73;47.80;100682.19;343780;28;1358;-71
2022/03/28 00:37:37;;;;;;;367.65;144.35;;;;;;;11.68;47.89;100676.25;344226;28;1489;-71
2022/03/28 00:37:48;;;;;;;365.30;144.20;;;;;;;11.62;48.20;100686.00;342247;28;1314;-71
2022/03/28 00:37:58;;;;;;;367.63;146.98;;;;;;;11.59;48.17;100688.72;341180;28;1243;-71
2022/03/28 00:38:09;;;;;;;365.87;146.27;;;;;;;11.45;48.55;100696.09;343909;28;1354;-71
2022/03/28 00:38:20;;;;;;;364.98;143.35;;;;;;;11.37;48.65;100690.19;342253;28;2725;-71
2022/03/28 00:38:30;;;;;;;363.17;140.98;;;;;;;11.39;48.77;100677.91;342545;28;1208;-71
2022/03/28 00:38:40;;;;;;;363.13;139.17;;;;;;;11.40;49.03;100692.72;341235;29;1322;-71
2022/03/28 00:38:51;;;;;;;364.65;139.40;;;;;;;11.45;48.77;100688.22;341258;28;1099;-71
2022/03/28 00:39:01;;;;;;;365.33;138.73;;;;;;;11.45;48.67;100692.59;343760;28;1202;-71
2022/03/28 00:39:12;;;;;;;366.02;137.93;;;;;;;11.38;48.77;100688.44;343901;28;1833;-71
2022/03/28 00:39:22;;;;;;;367.13;139.33;;;;;;;11.31;49.16;100687.72;343809;28;1239;-71
2022/03/28 00:39:33;;;;;;;369.27;141.70;;;;;;;11.33;48.82;100688.56;342529;28;1489;-71
2022/03/28 00:39:43;;;;;;;369.63;146.27;;;;;;;11.35;48.84;100684.13;343330;28;864;-71
2022/03/28 00:39:53;;;;;;;367.50;146.80;;;;;;;11.31;48.77;100691.22;339876;29;1356;-71
2022/03/28 00:40:05;;;;;;;369.13;145.73;;;;;;;11.25;49.21;100695.78;342353;28;2190;-71
2022/03/28 00:40:17;;;;;;;369.10;141.45;;;;;;;11.20;49.35;100689.81;343597;28;1979;-71
2022/03/28 00:40:31;;;;;;;368.77;137.02;;;;;;;11.06;49.55;100692.75;343572;28;1975;-71
2022/03/28 00:40:42;;;;;;;364.15;135.52;;;;;;;11.06;49.60;100691.91;339929;29;908;-71
2022/03/28 00:40:53;;;;;;;363.15;136.23;;;;;;;11.01;49.99;100694.63;340148;28;2167;-71
2022/03/28 00:41:04;;;;;;;363.67;135.27;;;;;;;11.03;49.78;100697.22;340752;29;1946;-71
2022/03/28 00:41:15;;;;;;;365.95;139.65;;;;;;;11.07;50.12;100688.38;342561;28;1411;-72
2022/03/28 00:41:25;;;;;;;366.75;140.38;;;;;;;11.11;49.84;100700.50;342502;28;1298;-71
2022/03/28 00:41:35;;;;;;;367.93;143.23;;;;;;;11.18;49.75;100696.84;343956;28;2145;-71
2022/03/28 00:41:47;;;;;;;367.45;142.02;;;;;;;11.14;49.65;100687.34;343847;28;1797;-71
2022/03/28 00:41:57;;;;;;;369.02;140.23;;;;;;;11.16;49.68;100698.63;343694;28;1461;-71
2022/03/28 00:42:08;;;;;;;367.00;138.38;;;;;;;11.17;49.35;100700.34;342516;28;1077;-71
2022/03/28 00:42:18;;;;;;;367.83;139.13;;;;;;;11.23;49.87;100700.19;341255;29;1866;-71
2022/03/28 00:42:29;;;;;;;367.00;139.95;;;;;;;11.22;49.28;100698.47;342485;28;1505;-71
2022/03/28 00:42:40;;;;;;;368.50;140.37;;;;;;;11.16;49.78;100698.63;339813;29;1343;-71
2022/03/28 00:42:51;;;;;;;367.23;138.25;;;;;;;11.08;49.86;100697.97;339928;29;1109;-71
2022/03/28 00:43:03;;;;;;;365.13;137.47;;;;;;;11.06;50.02;100697.16;341718;28;933;-69
2022/03/28 00:43:14;;;;;;;365.65;133.88;;;;;;;10.99;50.13;100694.69;342504;28;1755;-70
2022/03/28 00:43:24;;;;;;;367.45;137.68;;;;;;;11.00;50.13;100698.16;345182;28;1446;-70
2022/03/28 00:43:37;;;;;;;366.40;137.27;;;;;;;11.06;49.91;100699.75;342850;28;1613;-70
2022/03/28 00:43:57;;;;;;;364.27;139.43;;;;;;;11.04;49.88;100704.19;343894;28;1080;-70
2022/03/28 00:44:07;;;;;;;364.17;137.02;;;;;;;11.03;49.58;100699.84;343829;28;905;-70
2022/03/28 00:44:18;;;;;;;362.25;135.30;;;;;;;10.94;50.05;100699.16;342121;28;1026;-70
2022/03/28 00:44:32;;;;;;;365.23;138.52;;;;;;;10.91;50.37;100694.00;339890;29;1338;-69
2022/03/28 00:44:42;;;;;;;366.10;139.57;;;;;;;10.90;50.72;100697.53;342372;28;1418;-69
2022/03/28 00:44:52;;;;;;;367.48;136.20;;;;;;;10.96;50.07;100696.50;343843;28;1196;-69
2022/03/28 00:45:06;;;;;;;365.87;135.73;;;;;;;11.03;50.00;100691.97;341082;29;1378;-69
2022/03/28 00:45:18;;;;;;;366.48;136.30;;;;;;;11.07;49.93;100691.88;345095;28;809;-69
2022/03/28 00:45:31;;;;;;;362.10;132.50;;;;;;;11.06;50.43;100695.38;343872;28;1119;-69
2022/03/28 00:45:42;;;;;;;361.85;131.63;;;;;;;11.12;50.13;100691.75;343927;28;940;-70
2022/03/28 00:45:52;;;;;;;361.08;132.57;;;;;;;11.14;49.97;100695.19;344532;28;1649;-70
2022/03/28 00:46:02;;;;;;;361.60;133.53;;;;;;;11.09;50.18;100691.81;345240;28;975;-69
2022/03/28 00:46:13;;;;;;;361.43;133.07;;;;;;;11.05;49.88;100690.19;343923;28;1023;-69
2022/03/28 00:46:23;;;;;;;365.53;130.00;;;;;;;11.06;50.26;100691.91;342018;28;2117;-69
2022/03/28 00:46:37;;;;;;;367.30;131.03;;;;;;;11.09;49.96;100689.22;343646;28;1744;-69
2022/03/28 00:46:47;;;;;;;365.00;131.38;;;;;;;11.11;50.28;100695.28;341301;29;1145;-69
2022/03/28 00:46:58;;;;;;;365.60;133.10;;;;;;;11.11;50.04;100688.28;343639;28;1256;-69
2022/03/28 00:47:08;;;;;;;366.90;133.07;;;;;;;11.08;50.23;100690.09;343932;28;2092;-70
2022/03/28 00:47:19;;;;;;;367.83;131.50;;;;;;;10.97;50.05;100690.38;343968;28;910;-70
2022/03/28 00:47:30;;;;;;;365.63;132.03;;;;;;;10.95;50.73;100690.41;342330;28;1721;-71
2022/03/28 00:47:41;;;;;;;363.65;130.75;;;;;;;10.98;50.50;100692.97;343929;28;1514;-71
2022/03/28 00:47:51;;;;;;;365.57;133.47;;;;;;;10.94;50.49;100693.94;342476;28;1296;-71
2022/03/28 00:48:02;;;;;;;366.77;133.73;;;;;;;10.91;50.55;100685.28;342540;28;1007;-71
2022/03/28 00:48:12;;;;;;;365.00;133.80;;;;;;;10.94;50.39;100690.44;343982;28;1027;-71
2022/03/28 00:48:26;;;;;;;364.30;132.80;;;;;;;10.91;50.56;100688.78;343889;28;1743;-70
2022/03/28 00:48:38;;;;;;;368.60;132.13;;;;;;;10.88;50.86;100691.47;341195;29;995;-70
2022/03/28 00:48:49;;;;;;;368.27;132.85;;;;;;;10.90;51.15;100689.66;342447;28;1291;-70
2022/03/28 00:49:00;;;;;;;369.17;134.95;;;;;;;10.92;50.92;100689.63;341978;28;2218;-70